Home   Weather   Ballaugh   Past weeks
Flag for Isle of Man

Past Weather in Ballaugh, Isle of Man, Isle of Man — Yesterday and Last 2 Weeks

Currently: 46 °F. Sunny. (Weather station: Isle Of Man / Ronaldsway Airport, Isle of Man). See more current weather

Past Weather in Ballaugh — Graph

°F

Ballaugh Temperature Yesterday

Maximum temperature yesterday: 48 °F (at 2:20 pm)
Minimum temperature yesterday: 36 °F (at 8:50 pm)
Average temperature yesterday: 42 °F

High & Low Weather Summary for the Past Weeks

 TemperatureHumidityPressure
High50 °F (Feb 15, 12:50 pm)100% (Feb 14, 2:50 pm)30.74 "Hg (Feb 14, 2:50 pm)
Low36 °F (Feb 28, 8:50 pm)66% (Feb 25, 2:50 pm)29.12 "Hg (Feb 20, 2:50 pm)
Average46 °F89%29.88 "Hg
* Reported Feb 14 2:20 pm — Mar 1 2:50 pm, Ballaugh. Weather by CustomWeather, © 2021

Note: Actual official high and low records may vary slightly from our data, if they occured in-between our weather recording intervals... More about our weather records

Ballaugh Weather History for the Previous 24 Hours

Scroll right to see more
 ConditionsComfort  
Time TempWeatherWind HumidityBarometerVisibility
2:50 pm
Mon, Mar 1
46 °FSunny.14 mph76%30.45 "Hg10 mi
2:20 pm46 °FSunny.15 mph76%30.45 "Hg10 mi
1:50 pm46 °FClear.14 mph76%30.45 "Hg6 mi
1:20 pm46 °FClear.15 mph76%30.48 "Hg6 mi
12:50 pm46 °FClear.15 mph76%30.48 "Hg5 mi
12:20 pm46 °FClear.15 mph82%30.48 "Hg5 mi
11:50 am46 °FClear.15 mph82%30.48 "Hg6 mi
11:20 am46 °FSunny.16 mph82%30.51 "Hg10 mi
10:50 am46 °FSunny.15 mph76%30.51 "Hg10 mi
10:20 am46 °FSunny.15 mph82%30.51 "Hg10 mi
9:50 am45 °FClear.15 mph87%30.51 "Hg5 mi
9:20 am45 °FClear.14 mph87%30.51 "Hg4 mi
8:50 am45 °FClear.13 mph87%30.51 "Hg4 mi
8:20 am43 °FClear.14 mph93%30.51 "Hg4 mi
7:50 am39 °FClear.8 mph93%30.51 "Hg4 mi
7:20 am39 °FClear.8 mph93%30.51 "Hg5 mi
6:50 am41 °FClear.8 mph87%30.51 "Hg10 mi
6:20 am39 °FClear.8 mph93%30.51 "Hg10 mi
5:50 am41 °FClear.8 mph87%30.51 "Hg10 mi
5:20 am39 °FClear.7 mph93%30.51 "Hg10 mi
4:50 am39 °FPassing clouds.7 mph93%30.51 "HgN/A
3:50 am37 °FPassing clouds.8 mph93%30.51 "HgN/A
2:50 am41 °FClear.8 mph81%30.51 "Hg10 mi
12:50 am39 °FClear.6 mph87%30.54 "Hg10 mi
11:50 pm
Sun, Feb 28
37 °FClear.5 mph87%30.57 "Hg10 mi
10:50 pm37 °FClear.6 mph87%30.57 "Hg10 mi
9:50 pm37 °FClear.6 mph87%30.57 "Hg10 mi
8:50 pm36 °FClear.3 mph93%30.57 "Hg10 mi
8:20 pm37 °FClear.3 mph93%30.57 "Hg10 mi
7:50 pm39 °FClear.5 mph87%30.60 "Hg10 mi
7:20 pm41 °FClear.3 mph87%30.60 "Hg10 mi
6:50 pm41 °FClear.3 mph87%30.60 "Hg10 mi
5:50 pm43 °FPassing clouds.5 mph87%30.60 "HgN/A
5:20 pm43 °FSunny.7 mph87%30.60 "Hg10 mi
4:50 pm45 °FPassing clouds.9 mph81%30.60 "HgN/A
4:20 pm45 °FPassing clouds.8 mph81%30.60 "HgN/A
Weather by CustomWeather, © 2021

See weather overview